Carlyle, Illinois
Current Conditions -  °F | °C
As of 6:15 AM on Sunday 25 Jan 2015 (Local Time) from KENL Reporting Station
Light Rain Light Rain  
Wind Chill: 35°   Ceiling: 6500
Heat Index: 40°   Visibility: 10mi
Dew Point: 35°   Wind: 6mph
Humidity: 84%   Direction: 180°S
Pressure: 29.63"   Gusts: NA
Location:  38.61°N, 89.37°W
Report Text: KENL 251215Z AUTO 18005KT 10SM -RA BKN065 OVC090 04/02 A2963 RMK AO2 T00420017
Loading
Personal Weather Stations






























Interactive Weather Map New forecast layout! Learn more

10-Day Weather Forecast

Advertisements
Track Severe Weather on mobile